sensor_id;sensor_type;location;lat;lon;timestamp;pressure;altitude;pressure_sealevel;temperature;humidity
59337;BME280;45115;52.002;4.686;2023-04-10T00:00:32;102152.63;;;8.59;75.82
59337;BME280;45115;52.002;4.686;2023-04-10T00:03:01;102154.59;;;8.57;75.75
59337;BME280;45115;52.002;4.686;2023-04-10T00:05:28;102146.81;;;8.51;75.82
59337;BME280;45115;52.002;4.686;2023-04-10T00:07:55;102141.34;;;8.51;76.43
59337;BME280;45115;52.002;4.686;2023-04-10T00:10:21;102141.94;;;8.42;76.31
59337;BME280;45115;52.002;4.686;2023-04-10T00:12:50;102131.72;;;8.46;76.86
59337;BME280;45115;52.002;4.686;2023-04-10T00:15:18;102131.38;;;8.50;76.20
59337;BME280;45115;52.002;4.686;2023-04-10T00:17:45;102132.50;;;8.48;76.75
59337;BME280;45115;52.002;4.686;2023-04-10T00:20:13;102120.47;;;8.50;76.55
59337;BME280;45115;52.002;4.686;2023-04-10T00:22:39;102121.66;;;8.46;76.78
59337;BME280;45115;52.002;4.686;2023-04-10T00:25:07;102117.09;;;8.33;77.19
59337;BME280;45115;52.002;4.686;2023-04-10T00:27:34;102116.41;;;8.29;77.33
59337;BME280;45115;52.002;4.686;2023-04-10T00:30:00;102122.66;;;8.31;77.50
59337;BME280;45115;52.002;4.686;2023-04-10T00:32:27;102121.78;;;8.31;77.67
59337;BME280;45115;52.002;4.686;2023-04-10T00:34:54;102117.97;;;8.33;77.35
59337;BME280;45115;52.002;4.686;2023-04-10T00:37:22;102118.75;;;8.35;76.84
59337;BME280;45115;52.002;4.686;2023-04-10T00:39:49;102108.31;;;8.42;76.88
59337;BME280;45115;52.002;4.686;2023-04-10T00:42:16;102117.28;;;8.44;76.83
59337;BME280;45115;52.002;4.686;2023-04-10T00:44:43;102117.38;;;8.42;76.81
59337;BME280;45115;52.002;4.686;2023-04-10T00:47:11;102101.03;;;8.28;77.19
59337;BME280;45115;52.002;4.686;2023-04-10T00:49:38;102103.44;;;8.33;77.40
59337;BME280;45115;52.002;4.686;2023-04-10T00:52:06;102104.31;;;8.33;77.17
59337;BME280;45115;52.002;4.686;2023-04-10T00:54:34;102102.47;;;8.34;77.00
59337;BME280;45115;52.002;4.686;2023-04-10T00:57:02;102098.00;;;8.19;77.97
59337;BME280;45115;52.002;4.686;2023-04-10T00:59:29;102089.13;;;8.15;78.31
59337;BME280;45115;52.002;4.686;2023-04-10T01:01:56;102086.41;;;8.15;78.33
59337;BME280;45115;52.002;4.686;2023-04-10T01:04:23;102083.66;;;8.15;78.49
59337;BME280;45115;52.002;4.686;2023-04-10T01:06:57;102080.25;;;8.12;78.11
59337;BME280;45115;52.002;4.686;2023-04-10T01:09:40;102071.97;;;8.13;78.34
59337;BME280;45115;52.002;4.686;2023-04-10T01:12:43;102069.25;;;8.13;78.18
59337;BME280;45115;52.002;4.686;2023-04-10T01:15:15;102071.56;;;8.05;78.70
59337;BME280;45115;52.002;4.686;2023-04-10T01:17:49;102054.25;;;8.06;78.92
59337;BME280;45115;52.002;4.686;2023-04-10T01:20:19;102057.06;;;8.05;78.87
59337;BME280;45115;52.002;4.686;2023-04-10T01:25:59;102053.25;;;8.07;78.89
59337;BME280;45115;52.002;4.686;2023-04-10T01:28:52;102051.69;;;8.03;79.05
59337;BME280;45115;52.002;4.686;2023-04-10T01:31:30;102049.28;;;7.99;79.27
59337;BME280;45115;52.002;4.686;2023-04-10T01:34:02;102043.91;;;7.97;79.47
59337;BME280;45115;52.002;4.686;2023-04-10T01:36:34;102045.75;;;7.97;79.59
59337;BME280;45115;52.002;4.686;2023-04-10T01:39:02;102045.09;;;7.93;79.87
59337;BME280;45115;52.002;4.686;2023-04-10T01:41:30;102042.78;;;7.87;80.27
59337;BME280;45115;52.002;4.686;2023-04-10T01:44:02;102034.75;;;7.84;80.38
59337;BME280;45115;52.002;4.686;2023-04-10T01:46:30;102029.72;;;7.78;80.96
59337;BME280;45115;52.002;4.686;2023-04-10T01:48:59;102026.22;;;7.76;80.80
59337;BME280;45115;52.002;4.686;2023-04-10T01:51:29;102028.94;;;7.76;81.22
59337;BME280;45115;52.002;4.686;2023-04-10T01:53:59;102031.88;;;7.73;81.34
59337;BME280;45115;52.002;4.686;2023-04-10T01:56:27;102022.13;;;7.69;81.90
59337;BME280;45115;52.002;4.686;2023-04-10T01:58:55;102029.63;;;7.65;81.96
59337;BME280;45115;52.002;4.686;2023-04-10T02:01:23;102027.88;;;7.64;82.13
59337;BME280;45115;52.002;4.686;2023-04-10T02:03:50;102032.34;;;7.65;82.32
59337;BME280;45115;52.002;4.686;2023-04-10T02:06:22;102021.81;;;7.59;82.60
59337;BME280;45115;52.002;4.686;2023-04-10T02:08:57;102025.22;;;7.63;82.72
59337;BME280;45115;52.002;4.686;2023-04-10T02:11:31;102023.28;;;7.65;82.77
59337;BME280;45115;52.002;4.686;2023-04-10T02:14:00;102028.84;;;7.63;83.21
59337;BME280;45115;52.002;4.686;2023-04-10T02:16:31;102023.38;;;7.63;83.05
59337;BME280;45115;52.002;4.686;2023-04-10T02:18:59;102028.16;;;7.60;83.29
59337;BME280;45115;52.002;4.686;2023-04-10T02:21:27;102026.50;;;7.57;83.44
59337;BME280;45115;52.002;4.686;2023-04-10T02:23:56;102022.69;;;7.60;83.68
59337;BME280;45115;52.002;4.686;2023-04-10T02:26:22;102023.69;;;7.59;83.51
59337;BME280;45115;52.002;4.686;2023-04-10T02:28:49;102022.22;;;7.67;83.42
59337;BME280;45115;52.002;4.686;2023-04-10T02:31:16;102014.31;;;7.63;83.71
59337;BME280;45115;52.002;4.686;2023-04-10T02:33:44;102013.34;;;7.64;83.66
59337;BME280;45115;52.002;4.686;2023-04-10T02:36:11;102019.97;;;7.60;83.61
59337;BME280;45115;52.002;4.686;2023-04-10T02:38:38;102021.13;;;7.56;83.66
59337;BME280;45115;52.002;4.686;2023-04-10T02:41:05;102029.50;;;7.53;83.86
59337;BME280;45115;52.002;4.686;2023-04-10T02:43:33;102028.47;;;7.55;83.79
59337;BME280;45115;52.002;4.686;2023-04-10T02:45:59;102033.22;;;7.52;84.01
59337;BME280;45115;52.002;4.686;2023-04-10T02:48:30;102033.03;;;7.55;83.95
59337;BME280;45115;52.002;4.686;2023-04-10T02:51:01;102034.75;;;7.56;83.59
59337;BME280;45115;52.002;4.686;2023-04-10T02:53:28;102038.97;;;7.61;83.41
59337;BME280;45115;52.002;4.686;2023-04-10T02:55:58;102039.38;;;7.69;82.90
59337;BME280;45115;52.002;4.686;2023-04-10T02:58:26;102043.53;;;7.75;82.57
59337;BME280;45115;52.002;4.686;2023-04-10T03:00:55;102043.72;;;7.72;82.84
59337;BME280;45115;52.002;4.686;2023-04-10T03:03:33;102037.31;;;7.73;83.19
59337;BME280;45115;52.002;4.686;2023-04-10T03:05:59;102028.16;;;7.74;82.66
59337;BME280;45115;52.002;4.686;2023-04-10T03:08:31;102030.00;;;7.73;82.52
59337;BME280;45115;52.002;4.686;2023-04-10T03:10:58;102023.84;;;7.70;82.57
59337;BME280;45115;52.002;4.686;2023-04-10T03:13:24;102019.09;;;7.73;82.44
59337;BME280;45115;52.002;4.686;2023-04-10T03:15:51;102021.44;;;7.79;81.79
59337;BME280;45115;52.002;4.686;2023-04-10T03:18:18;102021.22;;;7.82;81.70
59337;BME280;45115;52.002;4.686;2023-04-10T03:20:48;102011.59;;;7.77;81.37
59337;BME280;45115;52.002;4.686;2023-04-10T03:23:17;102012.00;;;7.71;81.59
59337;BME280;45115;52.002;4.686;2023-04-10T03:25:50;102007.50;;;7.70;81.38
59337;BME280;45115;52.002;4.686;2023-04-10T03:28:18;102009.63;;;7.79;81.30
59337;BME280;45115;52.002;4.686;2023-04-10T03:30:45;102011.59;;;7.77;81.52
59337;BME280;45115;52.002;4.686;2023-04-10T03:33:12;102002.13;;;7.82;80.94
59337;BME280;45115;52.002;4.686;2023-04-10T03:35:39;101998.63;;;7.80;80.82
59337;BME280;45115;52.002;4.686;2023-04-10T03:38:06;101996.00;;;7.79;80.70
59337;BME280;45115;52.002;4.686;2023-04-10T03:40:34;101986.66;;;7.69;81.06
59337;BME280;45115;52.002;4.686;2023-04-10T03:43:03;101986.34;;;7.73;81.01
59337;BME280;45115;52.002;4.686;2023-04-10T03:45:30;101979.53;;;7.80;80.54
59337;BME280;45115;52.002;4.686;2023-04-10T03:47:58;101977.00;;;7.77;80.48
59337;BME280;45115;52.002;4.686;2023-04-10T03:50:30;101978.16;;;7.87;79.67
59337;BME280;45115;52.002;4.686;2023-04-10T03:52:59;101975.53;;;7.86;79.36
59337;BME280;45115;52.002;4.686;2023-04-10T03:55:26;101969.13;;;7.87;79.82
59337;BME280;45115;52.002;4.686;2023-04-10T03:57:53;101973.69;;;7.86;79.95
59337;BME280;45115;52.002;4.686;2023-04-10T04:00:24;101970.75;;;7.89;79.37
59337;BME280;45115;52.002;4.686;2023-04-10T04:02:59;101970.47;;;7.94;79.35
59337;BME280;45115;52.002;4.686;2023-04-10T04:05:47;101963.47;;;7.90;79.54
59337;BME280;45115;52.002;4.686;2023-04-10T04:08:25;101965.75;;;7.96;78.89
59337;BME280;45115;52.002;4.686;2023-04-10T04:11:07;101963.91;;;7.97;78.63
59337;BME280;45115;52.002;4.686;2023-04-10T04:13:51;101974.91;;;8.09;78.43
59337;BME280;45115;52.002;4.686;2023-04-10T04:16:37;101961.59;;;8.17;77.81
59337;BME280;45115;52.002;4.686;2023-04-10T04:19:39;101958.03;;;8.17;77.75
59337;BME280;45115;52.002;4.686;2023-04-10T04:22:32;101958.03;;;8.17;77.25
59337;BME280;45115;52.002;4.686;2023-04-10T04:25:07;101950.41;;;8.22;77.05
59337;BME280;45115;52.002;4.686;2023-04-10T04:28:14;101954.41;;;8.16;77.44
59337;BME280;45115;52.002;4.686;2023-04-10T04:30:59;101942.16;;;8.09;77.90
59337;BME280;45115;52.002;4.686;2023-04-10T04:33:47;101943.44;;;8.04;78.25
59337;BME280;45115;52.002;4.686;2023-04-10T04:36:43;101944.31;;;8.04;78.62
59337;BME280;45115;52.002;4.686;2023-04-10T04:39:28;101938.19;;;8.01;79.07
59337;BME280;45115;52.002;4.686;2023-04-10T04:42:14;101928.00;;;7.90;79.47
59337;BME280;45115;52.002;4.686;2023-04-10T04:45:02;101925.25;;;7.90;79.53
59337;BME280;45115;52.002;4.686;2023-04-10T04:47:54;101927.53;;;7.83;79.75
59337;BME280;45115;52.002;4.686;2023-04-10T04:50:29;101925.97;;;7.79;80.09
59337;BME280;45115;52.002;4.686;2023-04-10T04:53:16;101929.38;;;7.83;80.32
59337;BME280;45115;52.002;4.686;2023-04-10T04:56:03;101921.47;;;7.78;80.09
59337;BME280;45115;52.002;4.686;2023-04-10T04:58:45;101928.59;;;7.81;79.97
59337;BME280;45115;52.002;4.686;2023-04-10T05:01:30;101921.97;;;7.85;80.01
59337;BME280;45115;52.002;4.686;2023-04-10T05:04:29;101926.66;;;7.83;79.92
59337;BME280;45115;52.002;4.686;2023-04-10T05:07:12;101914.56;;;7.87;79.73
59337;BME280;45115;52.002;4.686;2023-04-10T05:09:53;101916.97;;;7.91;79.54
59337;BME280;45115;52.002;4.686;2023-04-10T05:12:38;101917.44;;;7.98;78.91
59337;BME280;45115;52.002;4.686;2023-04-10T05:15:19;101921.38;;;7.94;79.57
59337;BME280;45115;52.002;4.686;2023-04-10T05:18:00;101922.88;;;7.98;79.13
59337;BME280;45115;52.002;4.686;2023-04-10T05:20:46;101921.03;;;7.99;78.92
59337;BME280;45115;52.002;4.686;2023-04-10T05:23:42;101920.84;;;8.02;78.99
59337;BME280;45115;52.002;4.686;2023-04-10T05:26:27;101927.06;;;8.04;79.05
59337;BME280;45115;52.002;4.686;2023-04-10T05:29:15;101925.13;;;8.06;79.13
59337;BME280;45115;52.002;4.686;2023-04-10T05:32:01;101925.56;;;8.12;79.15
59337;BME280;45115;52.002;4.686;2023-04-10T05:35:04;101923.22;;;8.20;78.30
59337;BME280;45115;52.002;4.686;2023-04-10T05:37:33;101923.09;;;8.22;78.65
59337;BME280;45115;52.002;4.686;2023-04-10T05:40:20;101929.16;;;8.27;78.34
59337;BME280;45115;52.002;4.686;2023-04-10T05:42:55;101929.06;;;8.28;78.29
59337;BME280;45115;52.002;4.686;2023-04-10T05:45:34;101928.53;;;8.36;77.79
59337;BME280;45115;52.002;4.686;2023-04-10T05:48:20;101925.81;;;8.36;77.48
59337;BME280;45115;52.002;4.686;2023-04-10T05:51:08;101923.19;;;8.34;77.78
59337;BME280;45115;52.002;4.686;2023-04-10T05:53:51;101905.41;;;8.41;76.98
59337;BME280;45115;52.002;4.686;2023-04-10T05:56:37;101903.00;;;8.49;76.72
59337;BME280;45115;52.002;4.686;2023-04-10T05:59:24;101908.59;;;8.48;76.79
59337;BME280;45115;52.002;4.686;2023-04-10T06:02:09;101904.75;;;8.50;76.77
59337;BME280;45115;52.002;4.686;2023-04-10T06:04:36;101898.53;;;8.61;75.65
59337;BME280;45115;52.002;4.686;2023-04-10T06:07:03;101899.88;;;8.68;75.86
59337;BME280;45115;52.002;4.686;2023-04-10T06:09:31;101889.16;;;8.65;75.75
59337;BME280;45115;52.002;4.686;2023-04-10T06:12:00;101889.72;;;8.70;75.57
59337;BME280;45115;52.002;4.686;2023-04-10T06:14:27;101875.75;;;8.74;74.98
59337;BME280;45115;52.002;4.686;2023-04-10T06:16:54;101883.19;;;8.85;74.80
59337;BME280;45115;52.002;4.686;2023-04-10T06:19:21;101877.38;;;8.89;74.35
59337;BME280;45115;52.002;4.686;2023-04-10T06:21:47;101871.56;;;8.94;73.95
59337;BME280;45115;52.002;4.686;2023-04-10T06:24:14;101866.69;;;8.99;73.71
59337;BME280;45115;52.002;4.686;2023-04-10T06:26:41;101865.81;;;8.98;73.72
59337;BME280;45115;52.002;4.686;2023-04-10T06:29:09;101851.78;;;9.03;73.40
59337;BME280;45115;52.002;4.686;2023-04-10T06:31:37;101848.09;;;9.04;73.65
59337;BME280;45115;52.002;4.686;2023-04-10T06:34:04;101842.41;;;9.07;72.83
59337;BME280;45115;52.002;4.686;2023-04-10T06:36:33;101842.94;;;9.12;73.15
59337;BME280;45115;52.002;4.686;2023-04-10T06:39:03;101842.28;;;9.21;73.28
59337;BME280;45115;52.002;4.686;2023-04-10T06:41:31;101832.88;;;9.25;72.94
59337;BME280;45115;52.002;4.686;2023-04-10T06:44:13;101832.94;;;9.36;72.29
59337;BME280;45115;52.002;4.686;2023-04-10T06:46:40;101822.44;;;9.43;72.14
59337;BME280;45115;52.002;4.686;2023-04-10T06:49:06;101818.34;;;9.48;71.53
59337;BME280;45115;52.002;4.686;2023-04-10T06:51:33;101816.25;;;9.52;71.92
59337;BME280;45115;52.002;4.686;2023-04-10T06:54:00;101811.09;;;9.60;71.53
59337;BME280;45115;52.002;4.686;2023-04-10T06:56:27;101810.41;;;9.69;71.15
59337;BME280;45115;52.002;4.686;2023-04-10T06:58:53;101813.44;;;9.77;70.36
59337;BME280;45115;52.002;4.686;2023-04-10T07:01:21;101807.03;;;9.89;70.67
59337;BME280;45115;52.002;4.686;2023-04-10T07:03:48;101796.72;;;9.92;70.45
59337;BME280;45115;52.002;4.686;2023-04-10T07:06:16;101793.66;;;10.08;70.54
59337;BME280;45115;52.002;4.686;2023-04-10T07:08:43;101791.00;;;10.19;69.92
59337;BME280;45115;52.002;4.686;2023-04-10T07:11:10;101791.28;;;10.27;69.08
59337;BME280;45115;52.002;4.686;2023-04-10T07:13:36;101796.78;;;10.38;68.71
59337;BME280;45115;52.002;4.686;2023-04-10T07:16:06;101774.88;;;10.38;69.58
59337;BME280;45115;52.002;4.686;2023-04-10T07:18:35;101785.50;;;10.54;69.55
59337;BME280;45115;52.002;4.686;2023-04-10T07:21:09;101780.16;;;10.74;68.87
59337;BME280;45115;52.002;4.686;2023-04-10T07:23:36;101779.81;;;10.79;68.37
59337;BME280;45115;52.002;4.686;2023-04-10T07:26:03;101775.19;;;10.79;68.32
59337;BME280;45115;52.002;4.686;2023-04-10T07:28:30;101778.78;;;10.80;68.09
59337;BME280;45115;52.002;4.686;2023-04-10T07:30:57;101781.66;;;11.00;67.52
59337;BME280;45115;52.002;4.686;2023-04-10T07:33:24;101768.47;;;10.94;68.11
59337;BME280;45115;52.002;4.686;2023-04-10T07:35:52;101770.34;;;11.05;66.89
59337;BME280;45115;52.002;4.686;2023-04-10T07:38:22;101764.09;;;10.92;67.14
59337;BME280;45115;52.002;4.686;2023-04-10T07:40:54;101773.31;;;10.91;66.37
59337;BME280;45115;52.002;4.686;2023-04-10T07:43:21;101764.72;;;10.95;66.30
59337;BME280;45115;52.002;4.686;2023-04-10T07:45:48;101761.47;;;11.01;66.14
59337;BME280;45115;52.002;4.686;2023-04-10T07:48:14;101757.47;;;11.16;65.57
59337;BME280;45115;52.002;4.686;2023-04-10T07:50:41;101751.09;;;11.27;65.92
59337;BME280;45115;52.002;4.686;2023-04-10T07:53:14;101749.94;;;11.41;66.20
59337;BME280;45115;52.002;4.686;2023-04-10T07:55:54;101732.22;;;11.45;66.15
59337;BME280;45115;52.002;4.686;2023-04-10T07:58:21;101735.22;;;11.53;64.67
59337;BME280;45115;52.002;4.686;2023-04-10T08:00:48;101732.06;;;11.57;64.90
59337;BME280;45115;52.002;4.686;2023-04-10T08:03:14;101734.53;;;11.60;64.40
59337;BME280;45115;52.002;4.686;2023-04-10T08:05:41;101727.34;;;11.70;64.43
59337;BME280;45115;52.002;4.686;2023-04-10T08:08:08;101719.38;;;11.56;64.09
59337;BME280;45115;52.002;4.686;2023-04-10T08:10:36;101710.53;;;11.53;64.64
59337;BME280;45115;52.002;4.686;2023-04-10T08:13:04;101702.91;;;11.56;64.65
59337;BME280;45115;52.002;4.686;2023-04-10T08:15:30;101698.84;;;11.40;64.47
59337;BME280;45115;52.002;4.686;2023-04-10T08:17:57;101703.91;;;11.44;64.40
59337;BME280;45115;52.002;4.686;2023-04-10T08:20:24;101699.84;;;11.39;65.00
59337;BME280;45115;52.002;4.686;2023-04-10T08:22:51;101701.41;;;11.52;65.15
59337;BME280;45115;52.002;4.686;2023-04-10T08:25:17;101694.69;;;11.45;65.55
59337;BME280;45115;52.002;4.686;2023-04-10T08:27:45;101695.00;;;11.63;65.47
59337;BME280;45115;52.002;4.686;2023-04-10T08:30:12;101688.97;;;11.80;64.80
59337;BME280;45115;52.002;4.686;2023-04-10T08:32:39;101690.31;;;11.85;64.10
59337;BME280;45115;52.002;4.686;2023-04-10T08:35:06;101688.47;;;12.06;64.42
59337;BME280;45115;52.002;4.686;2023-04-10T08:37:33;101694.50;;;12.21;64.13
59337;BME280;45115;52.002;4.686;2023-04-10T08:40:00;101684.44;;;12.31;63.05
59337;BME280;45115;52.002;4.686;2023-04-10T08:42:27;101679.84;;;12.41;62.81
59337;BME280;45115;52.002;4.686;2023-04-10T08:44:55;101669.28;;;12.37;63.56
59337;BME280;45115;52.002;4.686;2023-04-10T08:47:24;101675.47;;;12.38;63.47
59337;BME280;45115;52.002;4.686;2023-04-10T08:49:56;101668.19;;;12.49;63.14
59337;BME280;45115;52.002;4.686;2023-04-10T08:52:29;101656.81;;;12.63;62.89
59337;BME280;45115;52.002;4.686;2023-04-10T08:54:58;101650.44;;;12.62;62.20
59337;BME280;45115;52.002;4.686;2023-04-10T08:57:25;101649.63;;;12.81;62.14
59337;BME280;45115;52.002;4.686;2023-04-10T08:59:52;101645.31;;;12.88;61.65
59337;BME280;45115;52.002;4.686;2023-04-10T09:02:20;101646.63;;;12.93;61.83
59337;BME280;45115;52.002;4.686;2023-04-10T09:04:48;101649.47;;;13.12;61.40
59337;BME280;45115;52.002;4.686;2023-04-10T09:07:15;101644.44;;;13.27;61.30
59337;BME280;45115;52.002;4.686;2023-04-10T09:09:42;101631.84;;;13.34;61.67
59337;BME280;45115;52.002;4.686;2023-04-10T09:12:09;101635.75;;;13.41;60.68
59337;BME280;45115;52.002;4.686;2023-04-10T09:14:36;101634.31;;;13.27;59.79
59337;BME280;45115;52.002;4.686;2023-04-10T09:17:12;101628.22;;;13.33;60.48
59337;BME280;45115;52.002;4.686;2023-04-10T09:19:40;101623.31;;;13.47;60.56
59337;BME280;45115;52.002;4.686;2023-04-10T09:22:10;101625.19;;;13.36;59.42
59337;BME280;45115;52.002;4.686;2023-04-10T09:24:39;101623.00;;;13.50;59.55
59337;BME280;45115;52.002;4.686;2023-04-10T09:27:06;101614.75;;;13.59;58.67
59337;BME280;45115;52.002;4.686;2023-04-10T09:29:41;101613.59;;;13.62;59.10
59337;BME280;45115;52.002;4.686;2023-04-10T09:32:09;101606.31;;;13.70;59.36
59337;BME280;45115;52.002;4.686;2023-04-10T09:34:52;101597.34;;;13.68;59.11
59337;BME280;45115;52.002;4.686;2023-04-10T09:37:19;101594.47;;;13.70;59.11
59337;BME280;45115;52.002;4.686;2023-04-10T09:39:47;101583.19;;;13.54;59.21
59337;BME280;45115;52.002;4.686;2023-04-10T09:42:13;101591.72;;;13.60;59.87
59337;BME280;45115;52.002;4.686;2023-04-10T09:44:41;101590.84;;;13.60;60.27
59337;BME280;45115;52.002;4.686;2023-04-10T09:47:15;101578.38;;;13.75;60.08
59337;BME280;45115;52.002;4.686;2023-04-10T09:49:46;101574.88;;;13.63;59.63
59337;BME280;45115;52.002;4.686;2023-04-10T09:52:18;101577.22;;;13.68;59.96
59337;BME280;45115;52.002;4.686;2023-04-10T09:54:45;101573.41;;;13.88;59.31
59337;BME280;45115;52.002;4.686;2023-04-10T09:57:15;101583.16;;;13.73;56.85
59337;BME280;45115;52.002;4.686;2023-04-10T09:59:43;101567.63;;;13.72;56.96
59337;BME280;45115;52.002;4.686;2023-04-10T10:02:13;101569.81;;;13.68;56.74
59337;BME280;45115;52.002;4.686;2023-04-10T10:04:43;101555.00;;;13.88;57.02
59337;BME280;45115;52.002;4.686;2023-04-10T10:07:11;101553.22;;;13.97;56.01
59337;BME280;45115;52.002;4.686;2023-04-10T10:09:40;101552.59;;;14.12;56.12
59337;BME280;45115;52.002;4.686;2023-04-10T10:12:08;101553.78;;;14.10;55.74
59337;BME280;45115;52.002;4.686;2023-04-10T10:14:41;101554.03;;;14.16;56.25
59337;BME280;45115;52.002;4.686;2023-04-10T10:17:10;101543.44;;;14.21;56.09
59337;BME280;45115;52.002;4.686;2023-04-10T10:19:44;101537.03;;;14.57;55.24
59337;BME280;45115;52.002;4.686;2023-04-10T10:22:13;101514.63;;;14.88;54.63
59337;BME280;45115;52.002;4.686;2023-04-10T10:24:44;101529.06;;;14.99;54.26
59337;BME280;45115;52.002;4.686;2023-04-10T10:27:13;101524.56;;;15.16;53.33
59337;BME280;45115;52.002;4.686;2023-04-10T10:29:43;101523.13;;;15.64;52.96
59337;BME280;45115;52.002;4.686;2023-04-10T10:32:10;101521.47;;;15.36;53.42
59337;BME280;45115;52.002;4.686;2023-04-10T10:34:38;101511.38;;;15.62;52.53
59337;BME280;45115;52.002;4.686;2023-04-10T10:37:05;101511.22;;;15.64;52.84
59337;BME280;45115;52.002;4.686;2023-04-10T10:39:44;101501.25;;;15.97;52.08
59337;BME280;45115;52.002;4.686;2023-04-10T10:42:18;101481.38;;;15.93;50.70
59337;BME280;45115;52.002;4.686;2023-04-10T10:44:51;101471.16;;;16.27;50.12
59337;BME280;45115;52.002;4.686;2023-04-10T10:47:26;101468.00;;;16.14;51.13
59337;BME280;45115;52.002;4.686;2023-04-10T10:49:55;101461.97;;;16.52;49.86
59337;BME280;45115;52.002;4.686;2023-04-10T10:52:36;101458.28;;;16.44;50.24
59337;BME280;45115;52.002;4.686;2023-04-10T10:55:32;101454.22;;;16.64;50.92
59337;BME280;45115;52.002;4.686;2023-04-10T10:58:04;101444.91;;;16.65;50.38
59337;BME280;45115;52.002;4.686;2023-04-10T11:01:04;101452.66;;;16.69;50.01
59337;BME280;45115;52.002;4.686;2023-04-10T11:03:34;101435.72;;;16.64;50.64
59337;BME280;45115;52.002;4.686;2023-04-10T11:06:03;101444.38;;;16.61;50.19
59337;BME280;45115;52.002;4.686;2023-04-10T11:08:44;101421.00;;;16.56;50.25
59337;BME280;45115;52.002;4.686;2023-04-10T11:11:20;101417.56;;;16.78;50.06
59337;BME280;45115;52.002;4.686;2023-04-10T11:14:11;101418.28;;;17.04;48.72
59337;BME280;45115;52.002;4.686;2023-04-10T11:16:44;101405.34;;;16.97;49.88
59337;BME280;45115;52.002;4.686;2023-04-10T11:19:11;101398.38;;;16.77;49.87
59337;BME280;45115;52.002;4.686;2023-04-10T11:22:02;101418.31;;;16.88;50.15
59337;BME280;45115;52.002;4.686;2023-04-10T11:24:54;101397.72;;;16.83;51.09
59337;BME280;45115;52.002;4.686;2023-04-10T11:27:42;101398.03;;;16.71;50.99
59337;BME280;45115;52.002;4.686;2023-04-10T11:30:30;101389.59;;;16.81;50.33
59337;BME280;45115;52.002;4.686;2023-04-10T11:32:58;101387.50;;;16.83;51.29
59337;BME280;45115;52.002;4.686;2023-04-10T11:35:26;101373.66;;;16.83;50.79
59337;BME280;45115;52.002;4.686;2023-04-10T11:38:07;101375.75;;;16.81;51.49
59337;BME280;45115;52.002;4.686;2023-04-10T11:40:34;101368.47;;;16.72;51.77
59337;BME280;45115;52.002;4.686;2023-04-10T11:43:12;101359.84;;;16.67;51.41
59337;BME280;45115;52.002;4.686;2023-04-10T11:45:39;101359.47;;;16.54;51.64
59337;BME280;45115;52.002;4.686;2023-04-10T11:48:06;101348.75;;;16.51;51.71
59337;BME280;45115;52.002;4.686;2023-04-10T11:50:33;101343.28;;;16.25;53.38
59337;BME280;45115;52.002;4.686;2023-04-10T11:53:00;101351.22;;;16.20;53.54
59337;BME280;45115;52.002;4.686;2023-04-10T11:55:35;101346.69;;;15.95;53.21
59337;BME280;45115;52.002;4.686;2023-04-10T11:58:03;101330.22;;;15.78;53.60
59337;BME280;45115;52.002;4.686;2023-04-10T12:00:31;101325.22;;;15.81;54.07
59337;BME280;45115;52.002;4.686;2023-04-10T12:02:58;101331.41;;;15.75;54.63
59337;BME280;45115;52.002;4.686;2023-04-10T12:05:24;101323.09;;;15.67;55.18
59337;BME280;45115;52.002;4.686;2023-04-10T12:07:51;101321.69;;;15.63;55.88
59337;BME280;45115;52.002;4.686;2023-04-10T12:10:18;101316.81;;;15.57;55.13
59337;BME280;45115;52.002;4.686;2023-04-10T12:12:45;101307.25;;;15.43;55.87
59337;BME280;45115;52.002;4.686;2023-04-10T12:15:25;101308.75;;;15.38;55.55
59337;BME280;45115;52.002;4.686;2023-04-10T12:17:54;101297.66;;;15.30;56.57
59337;BME280;45115;52.002;4.686;2023-04-10T12:20:21;101303.25;;;15.12;57.07
59337;BME280;45115;52.002;4.686;2023-04-10T12:22:52;101302.19;;;15.05;57.02
59337;BME280;45115;52.002;4.686;2023-04-10T12:25:20;101309.81;;;15.11;56.47
59337;BME280;45115;52.002;4.686;2023-04-10T12:27:48;101300.84;;;15.09;57.70
59337;BME280;45115;52.002;4.686;2023-04-10T12:30:15;101312.59;;;15.11;58.33
59337;BME280;45115;52.002;4.686;2023-04-10T12:32:50;101308.19;;;15.01;59.31
59337;BME280;45115;52.002;4.686;2023-04-10T12:35:18;101302.13;;;14.97;60.22
59337;BME280;45115;52.002;4.686;2023-04-10T12:37:46;101308.28;;;14.91;61.01
59337;BME280;45115;52.002;4.686;2023-04-10T12:40:13;101303.56;;;14.84;60.87
59337;BME280;45115;52.002;4.686;2023-04-10T12:42:40;101296.13;;;14.76;60.23
59337;BME280;45115;52.002;4.686;2023-04-10T12:45:08;101288.03;;;14.75;61.16
59337;BME280;45115;52.002;4.686;2023-04-10T12:47:43;101290.91;;;14.73;60.91
59337;BME280;45115;52.002;4.686;2023-04-10T12:50:14;101283.28;;;14.67;62.40
59337;BME280;45115;52.002;4.686;2023-04-10T12:52:44;101276.94;;;14.49;63.26
59337;BME280;45115;52.002;4.686;2023-04-10T12:55:13;101285.59;;;14.36;64.45
59337;BME280;45115;52.002;4.686;2023-04-10T12:57:40;101277.13;;;14.30;65.77
59337;BME280;45115;52.002;4.686;2023-04-10T13:00:09;101272.22;;;14.24;66.86
59337;BME280;45115;52.002;4.686;2023-04-10T13:02:36;101275.75;;;14.16;67.90
59337;BME280;45115;52.002;4.686;2023-04-10T13:05:04;101251.66;;;14.01;68.30
59337;BME280;45115;52.002;4.686;2023-04-10T13:07:31;101241.66;;;13.82;70.09
59337;BME280;45115;52.002;4.686;2023-04-10T13:09:59;101229.63;;;13.66;70.92
59337;BME280;45115;52.002;4.686;2023-04-10T13:12:26;101224.31;;;13.55;70.51
59337;BME280;45115;52.002;4.686;2023-04-10T13:14:54;101225.88;;;13.39;72.61
59337;BME280;45115;52.002;4.686;2023-04-10T13:17:22;101233.44;;;13.28;73.69
59337;BME280;45115;52.002;4.686;2023-04-10T13:19:50;101219.44;;;13.21;74.15
59337;BME280;45115;52.002;4.686;2023-04-10T13:22:17;101216.84;;;13.20;74.80